Impacts METAR Board
IDs:

KBWI - Baltimore-Washington, MD, US

Updated at: 0600 UTC 22 Oct 2018
Potential Impact None Slight Moderate High
Time 21/18Z 21/19Z 21/20Z 21/21Z 21/22Z 21/23Z 22/00Z 22/01Z 22/02Z 22/03Z 22/04Z 22/05Z 22/06Z
Temp53 53 53 52 50 47 45 43 41 38 38 37 36
Dewpt28 29 28 28 29 31 31 32 32 32 32 32 32
Altim30.09 30.09 30.10 30.11 30.13 30.16 30.19 30.21 30.22 30.24 30.25 30.26 30.27
VIS10 10 10 10 10 10 10 10 10 10 10 10 10
CIG-- -- -- -- -- -- -- -- -- -- -- -- --
CoverSCTSCTFEWFEWFEWFEWFEWFEWFEWFEWFEWFEWCLR
FltCatVFRVFRVFRVFRVFRVFRVFRVFRVFRVFRVFRVFRVFR
WX--------------------------
WDir310300320320300290280290290290250250250
WSpd14 12 13 12 9 12 10 9 6 5 5 5 4
WGst23 22 21 19 -- -- -- -- -- -- -- -- --
Raw hourly METARs
KBWI 211754Z 31014G23KT 10SM SCT055 12/M02 A3009 RMK AO2 PK WND 31026/1739 SLP189 T01171022 10122 20072 58001
KBWI 211854Z 30012G22KT 10SM SCT060 12/M02 A3009 RMK AO2 PK WND 27026/1834 SLP190 T01171017
KBWI 211954Z 32013G21KT 10SM FEW060 12/M02 A3010 RMK AO2 SLP194 T01171022
KBWI 212054Z 32012G19KT 10SM FEW060 11/M02 A3011 RMK AO2 SLP197 T01111022 53009
KBWI 212154Z 30009KT 10SM FEW060 10/M02 A3013 RMK AO2 SLP202 T01001017
KBWI 212254Z 29012KT 10SM FEW060 08/M01 A3016 RMK AO2 SLP215 T00831006
KBWI 212354Z 28010KT 10SM FEW060 07/M01 A3019 RMK AO2 SLP225 T00721006 10122 20072 53027
KBWI 220054Z 29009KT 10SM FEW060 06/00 A3021 RMK AO2 SLP231 T00610000
KBWI 220154Z 29006KT 10SM FEW050 05/00 A3022 RMK AO2 SLP235 T00500000
KBWI 220254Z 29005KT 10SM FEW048 03/00 A3024 RMK AO2 SLP239 T00330000 51014
KBWI 220354Z 25005KT 10SM FEW048 03/00 A3025 RMK AO2 SLP244 T00330000
KBWI 220454Z 25005KT 10SM FEW048 03/00 A3026 RMK AO2 SLP248 T00280000 401220028
KBWI 220554Z 25004KT 10SM CLR 02/00 A3027 RMK AO2 SLP251 T00220000 10072 20017 51013



Page loaded:  06:07 UTC  |   11:07 PM Pacific  |   12:07 AM Mountain  |   01:07 AM Central  |   02:07 AM Eastern

 

ADVISORIES

FORECASTS

FORECASTS

OBSERVATIONS

USER TOOLS

ABOUT US